Time;durP1;ratioP1;P1;durP2;ratioP2;P2;SDS_P1;SDS_P2;PMS_P1;PMS_P2;Temp;Humidity;BMP_temperature;BMP_pressure;BME280_temperature;BME280_humidity;BME280_pressure;Samples;Min_cycle;Max_cycle;Signal;HPM_P1;HPM_P2
2023/06/13 00:01:05;;;;;;;4.53;3.10;;;15.80;59.90;;;15.01;64.30;95718.25;4974264;28;20065;-62
2023/06/13 00:03:31;;;;;;;6.57;3.30;;;15.70;60.00;;;14.95;64.50;95719.97;4958085;28;20045;-62
2023/06/13 00:06:01;;;;;;;5.22;3.47;;;15.60;60.10;;;14.89;64.78;95715.56;4990025;28;20080;-62
2023/06/13 00:08:31;;;;;;;7.68;2.85;;;15.60;60.50;;;14.83;63.43;95720.94;4972826;28;20033;-62
2023/06/13 00:10:58;;;;;;;5.05;3.00;;;15.50;60.40;;;14.73;63.67;95715.41;4971001;28;20562;-62
2023/06/13 00:13:25;;;;;;;4.97;3.30;;;15.40;60.60;;;14.64;64.18;95718.31;4991382;28;20403;-63
2023/06/13 00:15:56;;;;;;;5.75;2.97;;;15.40;60.80;;;14.60;65.27;95721.66;4989791;28;20511;-63
2023/06/13 00:18:24;;;;;;;6.55;3.00;;;15.30;60.90;;;14.54;64.87;95718.06;4991421;28;20379;-63
2023/06/13 00:20:54;;;;;;;5.32;3.00;;;15.30;60.90;;;14.49;64.84;95720.56;4974220;28;20571;-62
2023/06/13 00:23:20;;;;;;;5.97;3.00;;;15.10;61.30;;;14.44;65.87;95711.66;4992482;28;20042;-63
2023/06/13 00:25:46;;;;;;;7.28;3.00;;;15.20;61.30;;;14.40;66.19;95716.56;4970008;28;20035;-62
2023/06/13 00:28:12;;;;;;;6.03;3.45;;;15.10;61.40;;;14.35;65.40;95716.44;4989599;28;20030;-63
2023/06/13 00:30:40;;;;;;;4.97;3.30;;;15.10;61.40;;;14.31;66.97;95710.78;4989964;28;20050;-63
2023/06/13 00:33:07;;;;;;;5.05;2.92;;;15.10;61.50;;;14.30;65.69;95711.00;4989212;28;20109;-63
2023/06/13 00:35:32;;;;;;;5.65;2.95;;;15.10;61.60;;;14.26;65.26;95713.28;4989671;28;20045;-62
2023/06/13 00:37:58;;;;;;;6.13;3.13;;;15.10;61.60;;;14.25;65.91;95706.34;4989338;28;20056;-62
2023/06/13 00:40:24;;;;;;;4.22;2.75;;;15.10;61.40;;;14.22;66.71;95708.63;4990693;28;20491;-62
2023/06/13 00:42:53;;;;;;;6.15;3.28;;;15.00;61.60;;;14.21;67.33;95701.72;4989644;28;20506;-62
2023/06/13 00:45:26;;;;;;;5.15;2.88;;;15.10;61.60;;;14.19;68.75;95707.25;4973422;28;20034;-63
2023/06/13 00:47:55;;;;;;;6.82;3.28;;;15.00;61.70;;;14.17;68.01;95700.56;4972967;28;20058;-63
2023/06/13 00:50:26;;;;;;;9.82;3.15;;;15.00;61.70;;;14.16;68.63;95698.94;4989548;28;20050;-62
2023/06/13 00:52:55;;;;;;;4.43;3.25;;;15.00;61.80;;;14.08;68.26;95697.41;4985111;28;20031;-62
2023/06/13 00:55:23;;;;;;;6.55;3.20;;;14.90;61.90;;;14.08;67.10;95692.94;4976055;28;20034;-63
2023/06/13 00:57:51;;;;;;;6.15;3.22;;;14.80;61.90;;;14.03;67.52;95690.16;4952263;28;20031;-63
2023/06/13 01:00:19;;;;;;;7.85;3.15;;;14.90;62.00;;;14.00;67.49;95687.91;4957751;28;20081;-62
2023/06/13 01:02:45;;;;;;;5.65;3.22;;;14.90;62.00;;;13.96;67.27;95688.56;4973010;28;20042;-63
2023/06/13 01:05:11;;;;;;;9.52;3.55;;;14.80;62.30;;;13.94;68.25;95690.63;4971706;28;20042;-63
2023/06/13 01:07:39;;;;;;;6.07;3.38;;;14.70;62.50;;;13.86;67.90;95689.09;4987569;28;20039;-63
2023/06/13 01:10:06;;;;;;;5.25;3.38;;;14.60;62.60;;;13.83;68.68;95681.63;4953922;28;20498;-62
2023/06/13 01:12:36;;;;;;;6.60;3.80;;;14.60;62.70;;;13.81;68.37;95681.03;4972725;28;20058;-63
2023/06/13 01:15:05;;;;;;;7.18;3.00;;;14.60;62.70;;;13.77;69.14;95683.28;4954183;28;20094;-63
2023/06/13 01:17:36;;;;;;;5.60;3.42;;;14.60;62.70;;;13.74;69.82;95681.06;4972661;28;20035;-63
2023/06/13 01:20:05;;;;;;;;;;;14.60;62.90;;;13.69;69.73;95682.75;4957867;28;20038;-62
2023/06/13 01:23:16;;;;;;;5.47;3.05;;;14.60;62.80;;;13.63;69.58;95678.34;4988715;28;19928;-63
2023/06/13 01:26:13;;;;;;;6.53;3.22;;;14.50;62.80;;;13.60;70.91;95673.50;4989209;28;20085;-63
2023/06/13 01:28:40;;;;;;;5.13;3.40;;;14.40;63.10;;;13.55;68.75;95665.41;4989099;28;20041;-63
2023/06/13 01:31:08;;;;;;;4.57;3.08;;;14.40;63.10;;;13.50;69.20;95668.69;4969747;28;20515;-62
2023/06/13 01:33:34;;;;;;;5.47;3.22;;;14.30;63.10;;;13.47;68.58;95653.28;4972050;28;20109;-63
2023/06/13 01:36:00;;;;;;;4.90;3.15;;;14.30;63.20;;;13.42;69.20;95661.06;4948006;28;20769;-62
2023/06/13 01:38:26;;;;;;;6.60;3.25;;;14.30;63.20;;;13.40;69.20;95653.34;4973840;28;20031;-63
2023/06/13 01:40:52;;;;;;;5.93;3.30;;;14.20;63.30;;;13.36;69.48;95652.19;4969516;28;20033;-62
2023/06/13 01:43:17;;;;;;;5.05;3.13;;;14.20;63.40;;;13.36;68.89;95651.38;4987597;28;20038;-62
2023/06/13 01:45:43;;;;;;;6.95;3.38;;;14.20;63.20;;;13.29;69.46;95651.41;4976097;28;20022;-63
2023/06/13 01:48:20;;;;;;;6.15;2.92;;;14.20;62.80;;;13.32;70.24;95653.63;4974341;28;20031;-62
2023/06/13 01:50:49;;;;;;;5.03;3.33;;;14.20;62.80;;;13.29;68.63;95651.41;4976872;28;20073;-62
2023/06/13 01:53:36;;;;;;;4.53;3.05;;;14.20;62.40;;;13.29;69.87;95637.41;4957300;28;20398;-62
2023/06/13 01:56:08;;;;;;;5.05;3.22;;;14.20;62.40;;;13.27;68.91;95640.25;4974780;28;20030;-62
2023/06/13 01:58:38;;;;;;;8.27;2.83;;;14.20;62.10;;;13.26;68.42;95643.91;4961399;28;20437;-64
2023/06/13 02:01:04;;;;;;;6.20;3.05;;;14.10;61.90;;;13.19;68.20;95632.63;4973613;28;20035;-62
2023/06/13 02:03:31;;;;;;;6.78;3.13;;;14.10;61.80;;;13.20;68.61;95633.41;4975088;28;20038;-62
2023/06/13 02:05:57;;;;;;;3.58;2.75;;;14.10;61.80;;;13.19;68.04;95624.69;4956763;28;20498;-63
2023/06/13 02:08:23;;;;;;;5.18;2.85;;;14.10;61.70;;;13.18;68.52;95628.34;4991335;28;20124;-62
2023/06/13 02:10:48;;;;;;;8.18;3.03;;;14.10;61.70;;;13.19;68.36;95635.25;4992380;28;20035;-62
2023/06/13 02:13:14;;;;;;;5.13;3.13;;;14.10;61.70;;;13.17;68.25;95632.00;4974088;28;20448;-62
2023/06/13 02:15:40;;;;;;;3.42;2.70;;;14.10;61.50;;;13.14;67.69;95624.50;4991909;28;20555;-62
2023/06/13 02:18:07;;;;;;;3.45;2.70;;;14.00;61.50;;;13.11;67.34;95625.72;4993320;28;20058;-62
2023/06/13 02:20:34;;;;;;;4.32;3.17;;;13.90;61.60;;;13.10;68.09;95626.75;4975207;28;20038;-62
2023/06/13 02:23:04;;;;;;;5.10;3.05;;;14.00;61.40;;;13.07;68.33;95621.09;4976667;28;20525;-62
2023/06/13 02:25:29;;;;;;;7.30;3.28;;;13.90;61.60;;;13.04;67.86;95613.63;4993259;28;20038;-63
2023/06/13 02:27:55;;;;;;;4.97;3.08;;;13.90;61.70;;;13.01;68.33;95616.69;4972304;28;20233;-62
2023/06/13 02:30:23;;;;;;;6.43;3.97;;;13.80;61.50;;;13.00;67.54;95615.06;4991898;28;20131;-62
2023/06/13 02:32:50;;;;;;;12.27;6.88;;;13.90;61.20;;;12.97;67.49;95615.50;4993253;28;20038;-63
2023/06/13 02:35:16;;;;;;;9.35;6.20;;;13.90;61.80;;;12.94;67.61;95615.94;4991895;28;20037;-62
2023/06/13 02:37:41;;;;;;;11.95;7.53;;;13.90;60.90;;;12.94;67.54;95613.31;4991604;28;20451;-62
2023/06/13 02:40:09;;;;;;;10.93;7.10;;;14.00;61.30;;;12.96;67.20;95613.88;4972250;28;20065;-62
2023/06/13 02:42:35;;;;;;;9.63;4.50;;;14.00;60.80;;;12.95;68.04;95612.28;4993210;28;20042;-62
2023/06/13 02:45:00;;;;;;;5.30;3.03;;;13.90;60.70;;;12.94;66.83;95606.19;4975562;28;20058;-63
2023/06/13 02:47:26;;;;;;;5.78;3.28;;;13.80;60.50;;;12.94;66.95;95608.03;4993105;28;20058;-64
2023/06/13 02:49:52;;;;;;;5.63;3.00;;;13.80;60.40;;;12.90;66.65;95605.00;4990999;28;20034;-64
2023/06/13 02:52:21;;;;;;;3.90;2.85;;;13.80;60.30;;;12.89;65.97;95604.16;4953546;28;20506;-64
2023/06/13 02:54:48;;;;;;;4.95;3.08;;;13.80;60.60;;;12.87;66.61;95608.06;4993317;28;20518;-64
2023/06/13 02:57:14;;;;;;;4.20;3.10;;;13.80;60.50;;;12.87;66.71;95611.50;4991209;28;20114;-62
2023/06/13 02:59:42;;;;;;;6.35;2.97;;;13.80;59.90;;;12.85;66.81;95610.09;4991996;28;20039;-61
2023/06/13 03:02:07;;;;;;;5.25;2.97;;;13.80;59.80;;;12.82;66.84;95613.97;4975207;28;20038;-61
2023/06/13 03:04:33;;;;;;;6.07;4.30;;;13.80;60.20;;;12.82;66.42;95613.16;4991242;28;20402;-62
2023/06/13 03:07:00;;;;;;;10.98;6.55;;;13.70;60.20;;;12.78;66.43;95612.78;4955895;28;20035;-62
2023/06/13 03:09:26;;;;;;;10.55;5.93;;;13.80;60.30;;;12.79;66.13;95618.88;4991180;28;20086;-62
2023/06/13 03:11:51;;;;;;;8.48;3.63;;;13.80;60.80;;;12.75;66.65;95602.69;4990773;28;20450;-62
2023/06/13 03:14:17;;;;;;;5.22;3.35;;;13.70;60.40;;;12.75;66.56;95610.59;4972616;28;20388;-61
2023/06/13 03:16:43;;;;;;;7.50;3.00;;;13.80;60.80;;;12.72;66.75;95608.38;4992465;28;20085;-61
2023/06/13 03:19:09;;;;;;;5.03;2.97;;;13.70;60.40;;;12.72;66.68;95607.56;4992305;28;20038;-62
2023/06/13 03:21:35;;;;;;;9.85;5.25;;;13.70;60.40;;;12.72;67.19;95611.03;4973706;28;20037;-62
2023/06/13 03:24:01;;;;;;;6.80;4.15;;;13.70;60.50;;;12.71;66.54;95617.31;4992353;28;20038;-62
2023/06/13 03:26:28;;;;;;;5.20;2.78;;;13.70;60.30;;;12.70;66.16;95610.44;4993423;28;20064;-62
2023/06/13 03:28:54;;;;;;;7.63;3.80;;;13.60;60.30;;;12.66;66.49;95606.56;4990948;28;20054;-62
2023/06/13 03:31:20;;;;;;;6.18;4.95;;;13.70;60.50;;;12.66;66.71;95614.50;4990798;28;20058;-62
2023/06/13 03:33:46;;;;;;;7.20;3.67;;;13.70;60.20;;;12.65;67.01;95618.16;4988886;28;20023;-62
2023/06/13 03:36:12;;;;;;;8.10;4.78;;;13.70;60.50;;;12.62;67.10;95631.78;4984838;28;20046;-62
2023/06/13 03:38:37;;;;;;;8.43;6.20;;;13.70;60.30;;;12.60;67.25;95625.91;4987255;28;20132;-63
2023/06/13 03:41:03;;;;;;;10.32;8.00;;;13.70;60.30;;;12.59;66.83;95632.22;4991561;28;20101;-62
2023/06/13 03:43:29;;;;;;;9.02;4.82;;;13.70;60.40;;;12.56;67.09;95622.09;4990027;28;20510;-62
2023/06/13 03:45:56;;;;;;;6.57;3.40;;;13.60;60.30;;;12.56;67.40;95625.53;4989745;28;20065;-62
2023/06/13 03:48:21;;;;;;;6.03;3.42;;;13.70;60.60;;;12.56;67.26;95622.09;4956262;28;20410;-63
2023/06/13 03:50:47;;;;;;;6.05;2.80;;;13.70;60.60;;;12.56;67.64;95625.53;4988829;28;20048;-62
2023/06/13 03:53:13;;;;;;;7.18;2.97;;;13.70;60.70;;;12.60;67.72;95625.09;4988767;28;20177;-63
2023/06/13 03:55:39;;;;;;;4.22;2.97;;;13.70;60.70;;;12.60;67.42;95625.09;4991216;28;20502;-67
2023/06/13 03:58:05;;;;;;;6.22;3.35;;;13.70;60.40;;;12.63;67.41;95620.19;4986789;28;20057;-65
2023/06/13 04:00:33;;;;;;;4.43;3.28;;;13.70;60.50;;;12.63;67.54;95624.66;4989729;28;20415;-65
2023/06/13 04:03:02;;;;;;;4.22;2.92;;;13.80;60.80;;;12.61;67.54;95621.44;4985482;28;20033;-65
2023/06/13 04:05:28;;;;;;;6.80;5.05;;;13.70;60.80;;;12.61;67.94;95627.53;4990439;28;20027;-64
2023/06/13 04:07:54;;;;;;;18.63;10.65;;;13.70;61.20;;;12.58;68.13;95628.75;4973914;28;20037;-65
2023/06/13 04:10:20;;;;;;;9.02;6.43;;;13.70;61.00;;;12.57;68.63;95629.78;4990563;28;20053;-64
2023/06/13 04:12:47;;;;;;;7.68;4.90;;;13.70;60.90;;;12.62;67.98;95633.59;4973069;28;20039;-64
2023/06/13 04:15:13;;;;;;;10.65;6.43;;;13.80;61.10;;;12.62;68.10;95631.78;4991482;28;20026;-65
2023/06/13 04:17:39;;;;;;;8.18;5.03;;;13.80;61.10;;;12.65;68.72;95633.97;4990100;28;20037;-65
2023/06/13 04:20:06;;;;;;;4.13;2.90;;;13.80;61.50;;;12.62;68.77;95626.50;4970729;28;20031;-64
2023/06/13 04:22:32;;;;;;;5.00;2.70;;;13.80;60.60;;;12.62;68.27;95628.34;4989420;28;20043;-65
2023/06/13 04:24:58;;;;;;;6.07;3.30;;;13.70;61.00;;;12.61;68.63;95632.78;4991264;28;20193;-64
2023/06/13 04:27:28;;;;;;;6.50;3.08;;;13.80;60.90;;;12.64;68.32;95640.28;4991539;28;20033;-66
2023/06/13 04:29:55;;;;;;;11.10;3.47;;;13.80;61.30;;;12.64;69.02;95632.38;4989687;28;20121;-65
2023/06/13 04:32:23;;;;;;;6.40;2.80;;;13.90;61.50;;;12.68;68.42;95649.41;4991342;28;20091;-63
2023/06/13 04:34:55;;;;;;;7.55;3.15;;;13.90;61.30;;;12.67;69.68;95639.84;4987897;28;20090;-64
2023/06/13 04:37:25;;;;;;;7.63;3.22;;;13.90;61.70;;;12.68;69.27;95640.69;4987936;28;20022;-64
2023/06/13 04:39:52;;;;;;;4.90;3.60;;;14.00;61.30;;;12.70;68.83;95636.00;4973795;28;20510;-67
2023/06/13 04:42:24;;;;;;;5.45;3.33;;;13.90;61.00;;;12.70;68.84;95639.47;4973844;28;20061;-63
2023/06/13 04:44:52;;;;;;;6.95;3.50;;;13.90;60.80;;;12.72;69.14;95642.69;4973056;28;20023;-65
2023/06/13 04:47:19;;;;;;;4.22;2.97;;;14.00;60.50;;;12.77;68.77;95652.59;4989870;28;20439;-64
2023/06/13 04:49:45;;;;;;;5.25;2.95;;;14.00;60.40;;;12.80;68.62;95650.34;4988827;28;20023;-65
2023/06/13 04:52:15;;;;;;;6.72;2.92;;;14.10;60.60;;;12.82;67.97;95650.94;4990047;28;20038;-65
2023/06/13 04:54:41;;;;;;;6.57;3.38;;;14.10;60.00;;;12.84;68.02;95654.16;4972199;28;20065;-65
2023/06/13 04:57:07;;;;;;;5.15;3.00;;;14.10;60.30;;;12.88;68.09;95657.97;4973668;28;20415;-65
2023/06/13 04:59:32;;;;;;;7.78;3.30;;;14.10;60.20;;;12.91;68.02;95656.78;4989707;28;20062;-64
2023/06/13 05:01:58;;;;;;;8.50;3.85;;;14.20;60.10;;;12.93;68.42;95652.09;4989012;28;20072;-64
2023/06/13 05:04:24;;;;;;;6.47;4.13;;;14.20;60.50;;;12.99;68.35;95655.69;4989315;28;20061;-65
2023/06/13 05:06:50;;;;;;;4.97;3.65;;;14.30;60.70;;;13.04;69.04;95653.22;4989738;28;20044;-65
2023/06/13 05:09:17;;;;;;;7.28;2.90;;;14.30;60.80;;;13.04;69.23;95647.94;4990607;28;20022;-65
2023/06/13 05:11:43;;;;;;;5.60;3.67;;;14.40;60.20;;;13.12;68.29;95645.00;4973109;28;20030;-64
2023/06/13 05:14:09;;;;;;;6.35;3.15;;;14.50;60.30;;;13.17;68.41;95650.47;4990504;28;20045;-65
2023/06/13 05:16:35;;;;;;;4.55;3.22;;;14.50;60.60;;;13.24;68.39;95653.91;4990569;28;20121;-64
2023/06/13 05:19:01;;;;;;;6.40;2.88;;;14.50;60.30;;;13.27;68.80;95642.91;4988974;28;20030;-64
2023/06/13 05:21:31;;;;;;;5.65;3.35;;;14.60;60.10;;;13.32;68.09;95639.59;4989208;28;20452;-65
2023/06/13 05:23:57;;;;;;;5.55;3.30;;;14.60;59.80;;;13.36;68.05;95640.81;4972549;28;20030;-64
2023/06/13 05:26:23;;;;;;;6.35;3.75;;;14.70;60.00;;;13.42;68.83;95634.66;4989541;28;20222;-64
2023/06/13 05:28:49;;;;;;;7.40;3.35;;;14.70;59.50;;;13.47;68.04;95648.81;4989630;28;20054;-65
2023/06/13 05:31:15;;;;;;;8.60;3.42;;;14.80;60.10;;;13.54;68.70;95650.56;4990662;28;20117;-66
2023/06/13 05:33:41;;;;;;;5.53;2.92;;;14.90;59.60;;;13.60;68.66;95642.59;4989722;28;20121;-66
2023/06/13 05:36:06;;;;;;;6.95;3.45;;;15.10;59.00;;;13.68;67.37;95642.31;4973090;28;20038;-66
2023/06/13 05:38:32;;;;;;;5.45;3.10;;;15.10;58.80;;;13.79;67.11;95646.84;4970508;28;20054;-66
2023/06/13 05:40:58;;;;;;;5.30;3.10;;;15.20;58.10;;;13.88;66.13;95647.38;4989315;28;20034;-65
2023/06/13 05:43:24;;;;;;;7.22;2.90;;;15.30;57.70;;;13.97;66.05;95648.69;4970618;28;20087;-65
2023/06/13 05:45:50;;;;;;;5.22;2.65;;;15.40;57.00;;;14.02;65.71;95640.91;4989962;28;20520;-66
2023/06/13 05:48:15;;;;;;;5.70;3.17;;;15.60;57.00;;;14.18;65.36;95649.28;4989357;28;20027;-65
2023/06/13 05:50:41;;;;;;;4.07;2.80;;;15.70;56.70;;;14.29;66.06;95645.91;4971424;28;20084;-66
2023/06/13 05:53:07;;;;;;;7.72;2.90;;;15.90;56.50;;;14.39;65.04;95644.31;4989089;28;20546;-65
2023/06/13 05:55:33;;;;;;;6.93;3.08;;;16.00;54.90;;;14.52;65.39;95639.94;4972759;28;20522;-66
2023/06/13 05:57:58;;;;;;;5.28;3.00;;;16.10;55.20;;;14.67;64.43;95637.66;4971936;28;20064;-65
2023/06/13 06:00:25;;;;;;;7.20;3.13;;;16.30;55.20;;;14.84;64.74;95651.06;4988818;28;20081;-65
2023/06/13 06:02:50;;;;;;;8.38;3.78;;;16.60;55.10;;;14.98;63.58;95642.72;4988594;28;20040;-65
2023/06/13 06:05:19;;;;;;;5.13;3.03;;;16.70;53.70;;;15.15;62.03;95639.38;4972637;28;20121;-65
2023/06/13 06:07:45;;;;;;;5.72;2.72;;;16.90;52.50;;;15.31;63.16;95642.16;4956831;28;20077;-64
2023/06/13 06:10:11;;;;;;;8.10;3.20;;;17.10;52.60;;;15.54;62.76;95637.91;4972599;28;20109;-64
2023/06/13 06:12:37;;;;;;;7.22;3.00;;;17.50;52.20;;;15.78;62.35;95649.34;4988671;28;20037;-65
2023/06/13 06:15:03;;;;;;;5.30;2.78;;;17.80;52.10;;;15.99;61.23;95643.44;4972530;28;20058;-65
2023/06/13 06:17:29;;;;;;;10.75;3.42;;;18.00;50.00;;;16.21;60.56;95640.94;4988826;28;20042;-65
2023/06/13 06:19:55;;;;;;;11.25;2.67;;;18.20;49.80;;;16.44;59.65;95637.41;4988534;28;20521;-67
2023/06/13 06:22:21;;;;;;;5.43;2.83;;;18.50;49.00;;;16.62;59.01;95637.22;4990039;28;20030;-66
2023/06/13 06:24:46;;;;;;;6.28;2.78;;;18.60;48.10;;;16.88;57.41;95641.19;4989857;28;20054;-66
2023/06/13 06:27:12;;;;;;;5.88;2.50;;;18.90;46.70;;;17.11;57.16;95637.56;4953445;28;20031;-65
2023/06/13 06:29:39;;;;;;;6.45;2.65;;;19.30;46.70;;;17.36;55.97;95637.16;4969573;28;20650;-65
2023/06/13 06:32:06;;;;;;;10.55;2.90;;;19.60;45.30;;;17.54;54.56;95631.59;4991411;28;20109;-65
2023/06/13 06:34:32;;;;;;;5.82;2.53;;;19.70;43.70;;;17.72;53.54;95633.22;4992023;28;20034;-66
2023/06/13 06:36:58;;;;;;;8.90;2.80;;;20.00;44.10;;;17.93;53.39;95623.66;4974978;28;20057;-66
2023/06/13 06:39:24;;;;;;;6.75;2.42;;;20.20;43.00;;;18.13;52.82;95637.22;4957197;28;20033;-65
2023/06/13 06:41:50;;;;;;;6.32;2.30;;;20.50;43.60;;;18.36;51.99;95631.66;4991736;28;20026;-67
2023/06/13 06:44:16;;;;;;;6.15;2.80;;;20.80;42.10;;;18.53;51.61;95617.44;4991809;28;20034;-65
2023/06/13 06:46:41;;;;;;;5.20;2.42;;;20.80;41.20;;;18.67;50.96;95614.16;4993316;28;20572;-65
2023/06/13 06:49:07;;;;;;;7.80;2.22;;;21.00;41.00;;;18.79;50.03;95619.34;4993153;28;20076;-65
2023/06/13 06:51:33;;;;;;;7.32;3.10;;;21.20;40.90;;;18.97;47.69;95620.81;4972689;28;20452;-65
2023/06/13 06:53:59;;;;;;;13.75;3.75;;;21.50;39.00;;;19.15;47.32;95619.66;4974940;28;20030;-66
2023/06/13 06:56:25;;;;;;;5.72;2.58;;;21.60;39.00;;;19.29;47.35;95610.19;4991614;28;20057;-65
2023/06/13 06:58:51;;;;;;;4.40;2.13;;;21.90;38.70;;;19.44;46.72;95606.78;4974926;28;20038;-65
2023/06/13 07:01:18;;;;;;;6.00;2.30;;;22.10;38.40;;;19.62;46.66;95606.41;4956404;28;20061;-65
2023/06/13 07:03:45;;;;;;;5.93;2.33;;;22.30;38.50;;;19.80;46.96;95603.31;4991940;28;20037;-65
2023/06/13 07:06:13;;;;;;;5.07;2.40;;;22.60;37.90;;;19.97;46.58;95608.50;4993031;28;20754;-65
2023/06/13 07:08:39;;;;;;;15.18;4.63;;;22.80;37.90;;;20.18;45.94;95602.19;4975662;28;20561;-65
2023/06/13 07:11:05;;;;;;;6.13;2.72;;;23.10;36.50;;;20.38;44.08;95600.66;4975480;28;20022;-65
2023/06/13 07:13:32;;;;;;;4.95;2.67;;;23.30;35.60;;;20.50;44.44;95603.91;4991366;28;20046;-65
2023/06/13 07:15:59;;;;;;;8.23;2.53;;;23.50;35.60;;;20.69;44.04;95604.22;4957815;28;20030;-65
2023/06/13 07:18:25;;;;;;;8.75;2.42;;;23.70;35.50;;;20.90;43.80;95600.50;4991655;28;20091;-64
2023/06/13 07:20:51;;;;;;;7.38;2.42;;;24.00;35.20;;;21.06;42.71;95595.97;4990861;28;20494;-65
2023/06/13 07:23:17;;;;;;;9.07;2.45;;;24.10;33.80;;;21.22;41.18;95583.41;4975263;28;20069;-65
2023/06/13 07:25:43;;;;;;;4.90;2.05;;;24.20;32.40;;;21.36;40.67;95590.66;4990915;28;21330;-66
2023/06/13 07:28:09;;;;;;;4.80;2.65;;;24.50;33.10;;;21.47;40.10;95580.72;4985996;28;20470;-64
2023/06/13 07:30:35;;;;;;;3.75;2.10;;;24.50;32.50;;;21.59;40.82;95578.56;4975050;28;20458;-65
2023/06/13 07:33:01;;;;;;;3.03;1.90;;;24.80;33.10;;;21.84;40.33;95580.38;4992548;28;20058;-66
2023/06/13 07:35:26;;;;;;;12.60;2.50;;;25.10;31.90;;;22.06;39.72;95573.91;4986956;28;20050;-65
2023/06/13 07:37:53;;;;;;;6.00;3.10;;;25.30;31.50;;;22.34;39.56;95578.59;4992032;28;20049;-65
2023/06/13 07:40:23;;;;;;;7.10;3.15;;;25.80;31.30;;;22.65;38.25;95562.38;4955837;28;20037;-65
2023/06/13 07:42:49;;;;;;;10.43;4.90;;;26.10;30.70;;;22.95;39.05;95564.84;4989606;28;20042;-66
2023/06/13 07:45:15;;;;;;;8.57;2.42;;;26.40;30.70;;;23.17;37.91;95573.28;4974666;28;20038;-66
2023/06/13 07:47:41;;;;;;;7.90;2.40;;;26.50;30.70;;;23.33;37.05;95557.03;4990531;28;20165;-66
2023/06/13 07:50:07;;;;;;;9.82;2.28;;;26.50;29.30;;;23.52;37.06;95563.28;4972143;28;20022;-66
2023/06/13 07:52:33;;;;;;;8.23;1.80;;;26.60;29.80;;;23.69;36.82;95549.44;4972496;28;20038;-65
2023/06/13 07:54:59;;;;;;;5.15;2.10;;;26.70;29.00;;;23.93;35.62;95554.81;4989040;28;20043;-66
2023/06/13 07:57:24;;;;;;;4.80;1.98;;;27.10;28.80;;;24.13;35.52;95546.53;4990979;28;20058;-65
2023/06/13 07:59:50;;;;;;;4.97;2.00;;;27.30;28.00;;;24.36;35.23;95552.97;4972921;28;20041;-67
2023/06/13 08:02:16;;;;;;;11.50;2.70;;;27.50;28.50;;;24.55;34.50;95544.91;4991898;28;20038;-66
2023/06/13 08:04:42;;;;;;;11.05;2.20;;;27.50;29.00;;;24.73;35.49;95546.81;4974103;28;20503;-66
2023/06/13 08:07:09;;;;;;;7.70;1.83;;;27.60;29.30;;;24.86;34.70;95546.06;4990620;28;20118;-67
2023/06/13 08:09:34;;;;;;;7.47;2.38;;;27.50;29.50;;;24.98;35.29;95543.72;4991735;28;20030;-66
2023/06/13 08:12:00;;;;;;;8.30;2.10;;;27.90;28.70;;;24.96;34.40;95540.53;4971275;28;20026;-67
2023/06/13 08:14:26;;;;;;;10.73;2.15;;;27.60;28.10;;;24.95;34.34;95528.19;4974198;28;20125;-66
2023/06/13 08:16:52;;;;;;;4.43;2.05;;;27.90;27.50;;;25.02;33.73;95536.69;4974329;28;20031;-66
2023/06/13 08:19:17;;;;;;;5.25;1.65;;;27.90;27.60;;;25.10;33.01;95535.22;4991833;28;20031;-66
2023/06/13 08:21:43;;;;;;;10.68;2.58;;;28.00;26.70;;;25.21;33.11;95530.47;4971403;28;20118;-66
2023/06/13 08:24:09;;;;;;;4.95;1.75;;;28.20;27.20;;;25.42;32.72;95531.72;4957683;28;20109;-66
2023/06/13 08:26:35;;;;;;;3.63;1.33;;;28.50;26.90;;;25.47;32.73;95545.09;4990315;28;20532;-66
2023/06/13 08:29:01;;;;;;;6.10;1.95;;;28.60;26.20;;;25.75;32.50;95520.91;4990237;28;20045;-67
2023/06/13 08:31:29;;;;;;;3.03;1.67;;;28.80;26.10;;;25.90;32.09;95523.31;4954799;28;20561;-66
2023/06/13 08:33:58;;;;;;;6.43;2.10;;;28.90;26.00;;;26.06;31.97;95521.91;4988485;28;20023;-67
2023/06/13 08:36:27;;;;;;;7.72;2.70;;;29.10;26.30;;;26.32;32.08;95513.28;4939363;28;20027;-66
2023/06/13 08:38:56;;;;;;;7.47;2.95;;;29.50;26.00;;;26.52;30.44;95499.38;4990131;28;20500;-67
2023/06/13 08:41:21;;;;;;;9.48;2.30;;;29.70;25.00;;;26.68;31.96;95513.28;4989909;28;20023;-67
2023/06/13 08:43:47;;;;;;;4.97;1.80;;;29.80;25.90;;;26.83;31.32;95505.63;4973137;28;21721;-66
2023/06/13 08:46:13;;;;;;;11.68;2.80;;;29.80;25.50;;;27.01;30.25;95516.59;4946113;28;20496;-67
2023/06/13 08:48:39;;;;;;;7.50;2.05;;;29.90;24.10;;;26.98;29.97;95506.38;4976294;28;20116;-66
2023/06/13 08:51:05;;;;;;;4.60;1.95;;;29.80;24.90;;;27.17;30.10;95508.94;4989466;28;20031;-66
2023/06/13 08:53:32;;;;;;;5.47;1.83;;;30.00;24.40;;;27.16;30.05;95508.13;4988859;28;20418;-66
2023/06/13 08:56:00;;;;;;;5.10;1.70;;;29.90;24.60;;;27.23;29.34;95497.69;4989188;28;20023;-66
2023/06/13 08:58:27;;;;;;;5.60;1.88;;;30.10;24.60;;;27.40;29.37;95507.78;4973774;28;20121;-67
2023/06/13 09:00:54;;;;;;;5.25;2.20;;;30.10;24.40;;;27.57;28.91;95501.66;4955963;28;20033;-66
2023/06/13 09:03:20;;;;;;;7.60;1.70;;;30.30;24.40;;;27.61;28.75;95486.41;4953999;28;20485;-66
2023/06/13 09:05:45;;;;;;;4.30;1.92;;;30.30;24.10;;;27.62;28.86;95493.44;4974554;28;20026;-67
2023/06/13 09:08:11;;;;;;;9.75;1.95;;;30.40;23.40;;;27.64;28.49;95481.22;4957150;28;20069;-66
2023/06/13 09:10:37;;;;;;;10.23;2.22;;;30.40;23.80;;;27.69;28.52;95477.59;4971062;28;20035;-66
2023/06/13 09:13:06;;;;;;;5.63;1.90;;;30.40;23.50;;;27.68;28.35;95484.09;4959931;28;20042;-66
2023/06/13 09:15:31;;;;;;;5.22;2.10;;;30.60;23.70;;;27.74;27.85;95477.44;4973442;28;20085;-67
2023/06/13 09:17:57;;;;;;;4.55;1.90;;;30.40;23.00;;;27.84;28.38;95477.16;4944328;28;20089;-67
2023/06/13 09:20:24;;;;;;;4.05;2.00;;;30.70;23.30;;;27.94;27.77;95470.66;4989490;28;20046;-66
2023/06/13 09:22:50;;;;;;;2.90;1.95;;;30.80;23.20;;;28.06;28.06;95460.00;4989187;28;20034;-66
2023/06/13 09:25:16;;;;;;;4.22;2.00;;;31.00;22.90;;;28.18;26.64;95456.69;4948698;28;20039;-66
2023/06/13 09:27:42;;;;;;;4.32;2.00;;;31.10;21.60;;;28.33;26.67;95454.38;4967962;28;20122;-67
2023/06/13 09:30:08;;;;;;;5.78;2.13;;;31.30;21.70;;;28.46;26.77;95460.72;4990497;28;20674;-67
2023/06/13 09:32:35;;;;;;;9.45;2.90;;;31.50;22.10;;;28.63;27.04;95458.03;4989170;28;20031;-68
2023/06/13 09:35:05;;;;;;;26.35;4.53;;;31.70;22.90;;;28.78;26.45;95458.66;4970980;28;20343;-66
2023/06/13 09:37:34;;;;;;;26.75;4.03;;;31.80;22.60;;;28.87;26.82;95467.59;4986131;28;20041;-67
2023/06/13 09:40:05;;;;;;;4.73;2.40;;;32.10;23.00;;;28.97;26.07;95459.16;4957267;28;20828;-66
2023/06/13 09:42:31;;;;;;;15.48;4.25;;;32.20;21.50;;;29.14;26.08;95461.78;4990684;28;20695;-66
2023/06/13 09:44:56;;;;;;;6.40;2.30;;;32.40;21.60;;;29.23;25.76;95459.09;4971813;28;20383;-66
2023/06/13 09:47:23;;;;;;;3.03;2.10;;;32.40;20.80;;;29.34;25.46;95433.22;4968585;28;20037;-67
2023/06/13 09:49:56;;;;;;;4.47;2.28;;;32.60;20.60;;;29.52;24.03;95409.59;4987707;28;20458;-66
2023/06/13 09:52:26;;;;;;;5.75;2.17;;;32.80;19.90;;;29.75;24.15;95415.53;4951710;28;20037;-66
2023/06/13 09:54:52;;;;;;;;;;;33.10;19.70;;;29.80;23.34;95389.00;4989080;28;20031;-66
2023/06/13 09:57:21;;;;;;;16.08;4.07;;;33.20;19.50;;;29.95;25.48;95441.09;4989158;28;20064;-66
2023/06/13 09:59:48;;;;;;;9.47;2.73;;;33.50;21.20;;;30.03;25.11;95432.91;4988271;28;20038;-66
2023/06/13 10:02:19;;;;;;;4.63;2.10;;;33.70;19.20;;;30.28;24.48;95417.59;4972935;28;20034;-65
2023/06/13 10:04:45;;;;;;;8.60;1.95;;;34.30;19.70;;;30.54;26.12;95432.84;4989719;28;20490;-65
2023/06/13 10:07:11;;;;;;;6.00;1.80;;;34.70;20.70;;;30.73;25.14;95416.91;4992771;28;20058;-65
2023/06/13 10:09:38;;;;;;;6.05;2.03;;;34.90;18.70;;;31.11;24.52;95415.91;4992566;28;20038;-65
2023/06/13 10:12:08;;;;;;;9.23;1.88;;;35.50;18.40;;;31.26;22.92;95391.63;4991612;28;20034;-65
2023/06/13 10:14:36;;;;;;;4.97;2.00;;;35.30;18.00;;;31.46;24.17;95400.81;4957202;28;20514;-66
2023/06/13 10:17:03;;;;;;;4.75;1.75;;;35.10;18.60;;;31.73;24.58;95412.16;4959502;28;20518;-65